Time;durP1;ratioP1;P1;durP2;ratioP2;P2;SDS_P1;SDS_P2;PMS_P1;PMS_P2;Temp;Humidity;BMP_temperature;BMP_pressure;BME280_temperature;BME280_humidity;BME280_pressure;Samples;Min_cycle;Max_cycle;Signal;HPM_P1;HPM_P2
2021/01/06 00:02:21;;;;;;;226.47;28.27;;;;;;;-1.83;92.32;94925.59;5056037;28;20528;-76
2021/01/06 00:04:46;;;;;;;596.00;48.50;;;;;;;-1.86;92.41;94930.84;5056143;28;20588;-76
2021/01/06 00:07:11;;;;;;;736.30;56.77;;;;;;;-1.90;92.61;94928.59;5028813;28;20217;-76
2021/01/06 00:09:37;;;;;;;228.40;29.30;;;;;;;-1.88;92.51;94919.13;5043935;28;20200;-75
2021/01/06 00:12:05;;;;;;;608.93;47.40;;;;;;;-1.90;92.21;94931.13;5035781;28;20180;-76
2021/01/06 00:14:30;;;;;;;488.70;44.90;;;;;;;-1.85;92.49;94934.25;5047475;28;20197;-76
2021/01/06 00:16:56;;;;;;;864.00;69.90;;;;;;;-1.97;92.35;94929.84;5074947;28;20708;-77
2021/01/06 00:19:21;;;;;;;662.23;58.23;;;;;;;-1.88;92.65;94934.41;5068940;28;20219;-76
2021/01/06 00:21:46;;;;;;;361.30;35.83;;;;;;;-1.88;92.20;94934.41;5053678;28;20208;-76
2021/01/06 00:24:12;;;;;;;631.60;49.80;;;;;;;-1.92;92.20;94930.41;5035798;28;20203;-75
2021/01/06 00:26:37;;;;;;;336.87;36.20;;;;;;;-1.94;92.66;94930.50;5041649;28;20853;-75
2021/01/06 00:29:10;;;;;;;420.53;37.57;;;;;;;-1.94;92.39;94927.09;5068892;28;20183;-75
2021/01/06 00:31:37;;;;;;;388.30;33.73;;;;;;;-1.97;92.55;94929.84;5055528;28;20171;-75
2021/01/06 00:34:03;;;;;;;543.57;44.53;;;;;;;-1.96;92.13;94924.66;5073228;28;20205;-76
2021/01/06 00:36:28;;;;;;;721.57;54.93;;;;;;;-2.05;92.33;94925.16;5073421;28;20652;-75
2021/01/06 00:38:53;;;;;;;510.83;42.40;;;;;;;-2.03;92.26;94931.84;5065933;28;20208;-76
2021/01/06 00:41:29;;;;;;;707.47;59.77;;;;;;;-2.06;92.52;94928.63;5071982;28;20227;-76
2021/01/06 00:43:56;;;;;;;587.30;46.67;;;;;;;-2.03;92.32;94925.94;5088993;28;20545;-76
2021/01/06 00:46:21;;;;;;;766.73;62.33;;;;;;;-2.03;92.62;94934.38;5065162;28;20259;-76
2021/01/06 00:48:46;;;;;;;910.00;68.63;;;;;;;-2.10;92.17;94924.63;5043233;28;20271;-75
2021/01/06 00:51:12;;;;;;;853.97;75.87;;;;;;;-2.07;92.31;94929.53;5035322;28;20175;-76
2021/01/06 00:53:37;;;;;;;611.87;51.20;;;;;;;-2.03;92.33;94926.75;5035356;28;20181;-76
2021/01/06 00:56:02;;;;;;;513.00;39.37;;;;;;;-2.00;92.48;94936.75;5034891;28;20191;-76
2021/01/06 00:58:28;;;;;;;811.40;62.67;;;;;;;-2.05;92.65;94928.53;5041086;28;20663;-76
2021/01/06 01:00:53;;;;;;;465.80;42.70;;;;;;;-2.02;92.56;94933.47;5066850;28;20281;-76
2021/01/06 01:03:18;;;;;;;888.87;73.70;;;;;;;-2.09;92.04;94929.63;5072752;28;20186;-75
2021/01/06 01:05:45;;;;;;;777.57;65.67;;;;;;;-2.15;92.38;94932.50;5088555;28;20255;-76
2021/01/06 01:08:10;;;;;;;621.63;54.67;;;;;;;-2.15;92.78;94934.22;5076666;28;20215;-77
2021/01/06 01:10:43;;;;;;;673.53;53.07;;;;;;;-2.12;92.45;94936.59;5064454;28;20240;-77
2021/01/06 01:13:18;;;;;;;541.27;45.33;;;;;;;-2.12;92.64;94937.44;5072752;28;20220;-76
2021/01/06 01:15:46;;;;;;;713.90;56.87;;;;;;;-2.15;92.31;94937.59;5072659;28;20184;-75
2021/01/06 01:18:14;;;;;;;442.30;38.47;;;;;;;-2.16;92.52;94938.50;5065975;28;20642;-76
2021/01/06 01:20:48;;;;;;;211.23;27.77;;;;;;;-2.10;92.44;94943.25;5042651;28;20205;-75
2021/01/06 01:23:16;;;;;;;175.67;26.83;;;;;;;-2.07;92.68;94937.97;5034758;28;20226;-76
2021/01/06 01:25:41;;;;;;;67.17;21.17;;;;;;;-2.17;92.24;94941.13;5035040;28;20180;-75
2021/01/06 01:28:06;;;;;;;45.83;19.40;;;;;;;-2.15;92.14;94936.78;5034641;28;20216;-76
2021/01/06 01:30:32;;;;;;;39.97;20.33;;;;;;;-2.19;92.54;94941.22;5052821;28;20206;-75
2021/01/06 01:32:58;;;;;;;63.00;20.53;;;;;;;-2.26;92.07;94937.38;5056171;28;20827;-76
2021/01/06 01:35:26;;;;;;;35.57;19.73;;;;;;;-2.18;92.33;94940.31;5034453;28;20228;-75
2021/01/06 01:37:52;;;;;;;40.73;19.43;;;;;;;-2.13;92.19;94945.13;5052260;28;20204;-75
2021/01/06 01:40:35;;;;;;;37.97;19.33;;;;;;;-2.18;92.05;94947.94;5033668;28;20561;-75
2021/01/06 01:43:10;;;;;;;36.30;19.83;;;;;;;-2.21;92.02;94952.38;5082830;28;20184;-75
2021/01/06 01:45:58;;;;;;;37.93;20.37;;;;;;;-2.27;91.74;94948.47;5087832;28;20582;-75
2021/01/06 01:48:29;;;;;;;164.93;24.53;;;;;;;-2.28;91.85;94949.38;5053275;28;20184;-76
2021/01/06 01:50:58;;;;;;;73.87;20.80;;;;;;;-2.25;92.03;94953.47;5060598;28;20180;-75
2021/01/06 01:53:34;;;;;;;64.13;20.80;;;;;;;-2.25;91.66;94953.47;5075618;28;20178;-76
2021/01/06 01:56:00;;;;;;;36.47;19.93;;;;;;;-2.22;91.86;94953.28;5050634;28;20238;-76
2021/01/06 01:58:26;;;;;;;38.87;19.27;;;;;;;-2.25;92.13;94949.19;5034195;28;20179;-76
2021/01/06 02:00:54;;;;;;;32.37;17.43;;;;;;;-2.24;92.09;94953.38;5064901;28;20690;-76
2021/01/06 02:03:29;;;;;;;37.77;19.27;;;;;;;-2.22;92.02;94946.47;5076491;28;20209;-77
2021/01/06 02:06:06;;;;;;;36.50;19.30;;;;;;;-2.21;91.70;94947.28;5040146;28;20185;-75
2021/01/06 02:08:46;;;;;;;34.50;19.03;;;;;;;-2.20;91.65;94947.22;5050164;28;20194;-76
2021/01/06 02:11:18;;;;;;;35.30;18.00;;;;;;;-2.20;91.93;94951.50;5032845;28;20174;-76
2021/01/06 02:13:51;;;;;;;34.73;18.17;;;;;;;-2.21;92.01;94953.19;5075260;28;20179;-76
2021/01/06 02:16:38;;;;;;;37.50;17.47;;;;;;;-2.15;91.95;94941.88;5050655;28;20288;-75
2021/01/06 02:19:04;;;;;;;32.37;18.23;;;;;;;-2.13;91.67;94935.78;5071596;28;20259;-76
2021/01/06 02:21:29;;;;;;;32.40;17.93;;;;;;;-2.18;91.70;94930.16;5037026;28;20207;-76
2021/01/06 02:23:56;;;;;;;29.40;17.20;;;;;;;-2.22;91.97;94940.56;5073953;28;20270;-75
2021/01/06 02:26:24;;;;;;;30.40;16.60;;;;;;;-2.06;91.88;94926.91;5018925;28;20196;-75
2021/01/06 02:28:49;;;;;;;31.90;17.57;;;;;;;-2.17;91.32;94934.31;5066697;28;20186;-75
2021/01/06 02:31:16;;;;;;;30.17;15.40;;;;;;;-2.06;91.57;94937.06;5067001;28;20179;-75
2021/01/06 02:33:41;;;;;;;25.60;14.50;;;;;;;-2.11;91.21;94936.53;5053386;28;20191;-75
2021/01/06 02:36:06;;;;;;;25.37;14.43;;;;;;;-2.04;91.50;94931.91;5045144;28;20193;-76
2021/01/06 02:38:32;;;;;;;77.73;15.60;;;;;;;-2.07;91.32;94934.63;5053289;28;20198;-75
2021/01/06 02:40:58;;;;;;;41.60;14.03;;;;;;;-2.04;91.24;94930.16;5053477;28;20219;-76
2021/01/06 02:43:24;;;;;;;124.77;18.67;;;;;;;-2.13;91.51;94930.69;5067023;28;20183;-76
2021/01/06 02:45:50;;;;;;;65.57;14.83;;;;;;;-2.10;91.54;94922.91;5041471;28;20189;-75
2021/01/06 02:48:17;;;;;;;131.33;19.00;;;;;;;-2.05;91.51;94927.72;5068572;28;20719;-75
2021/01/06 02:50:44;;;;;;;405.97;36.77;;;;;;;-2.07;91.44;94925.25;5053205;28;20180;-77
2021/01/06 02:53:12;;;;;;;297.93;26.40;;;;;;;-2.09;91.58;94921.19;5053508;28;20177;-75
2021/01/06 02:55:38;;;;;;;227.43;25.73;;;;;;;-2.15;91.32;94927.41;5040583;28;20186;-75
2021/01/06 02:58:09;;;;;;;571.80;46.07;;;;;;;-2.21;91.65;94920.13;5037611;28;20203;-75
2021/01/06 03:00:34;;;;;;;702.60;54.93;;;;;;;-2.19;91.53;94923.44;5069361;28;20649;-75
2021/01/06 03:03:01;;;;;;;872.60;67.10;;;;;;;-2.35;92.12;94928.53;5053958;28;20180;-75
2021/01/06 03:05:37;;;;;;;182.17;25.47;;;;;;;-2.32;92.04;94928.34;5051526;28;20196;-74
2021/01/06 03:08:03;;;;;;;457.07;38.77;;;;;;;-2.30;91.94;94931.66;5045192;28;20204;-75
2021/01/06 03:10:28;;;;;;;137.70;23.20;;;;;;;-2.29;92.09;94927.41;5070207;28;20185;-75
2021/01/06 03:12:55;;;;;;;98.97;22.07;;;;;;;-2.26;91.97;94923.84;5055098;28;20175;-75
2021/01/06 03:15:24;;;;;;;50.57;17.37;;;;;;;-2.26;92.16;94917.03;5069470;28;20262;-76
2021/01/06 03:17:49;;;;;;;42.63;18.30;;;;;;;-2.22;91.75;94920.22;5078499;28;20205;-75
2021/01/06 03:20:42;;;;;;;154.70;21.97;;;;;;;-2.17;91.65;94919.06;5087532;28;20674;-75
2021/01/06 03:23:12;;;;;;;362.97;33.70;;;;;;;-2.17;91.67;94910.63;5072705;28;20203;-76
2021/01/06 03:25:38;;;;;;;546.83;42.40;;;;;;;-2.24;91.63;94915.22;5056958;28;20270;-77
2021/01/06 03:28:04;;;;;;;378.30;30.80;;;;;;;-2.24;91.98;94909.31;5045490;28;20208;-76
2021/01/06 03:30:32;;;;;;;448.40;40.67;;;;;;;-2.24;92.23;94912.69;5037147;28;20175;-75
2021/01/06 03:33:09;;;;;;;401.60;35.50;;;;;;;-2.21;92.24;94906.59;5070052;28;20288;-75
2021/01/06 03:35:59;;;;;;;104.23;20.57;;;;;;;-2.19;91.74;94915.78;5036708;28;20184;-75
2021/01/06 03:38:43;;;;;;;239.60;25.70;;;;;;;-2.23;91.66;94905.88;5068370;28;20204;-75
2021/01/06 03:41:09;;;;;;;408.07;38.13;;;;;;;-2.37;91.69;94914.28;5069621;28;20542;-75
2021/01/06 03:43:39;;;;;;;332.63;33.97;;;;;;;-2.35;91.71;94900.56;5056372;28;20184;-75
2021/01/06 03:46:21;;;;;;;979.57;72.90;;;;;;;-2.42;91.79;94911.16;5056474;28;20182;-75
2021/01/06 03:48:49;;;;;;;304.53;33.07;;;;;;;-2.39;92.17;94911.78;5047199;28;20546;-76
2021/01/06 03:51:25;;;;;;;400.90;38.87;;;;;;;-2.44;91.60;94907.88;5065902;28;20175;-76
2021/01/06 03:53:53;;;;;;;296.40;30.23;;;;;;;-2.42;91.39;94904.34;5072830;28;20187;-76
2021/01/06 03:56:27;;;;;;;86.13;20.73;;;;;;;-2.40;91.92;94901.72;5056403;28;20301;-76
2021/01/06 03:59:05;;;;;;;117.00;20.63;;;;;;;-2.35;91.46;94894.66;5047339;28;20184;-75
2021/01/06 04:01:39;;;;;;;130.90;21.30;;;;;;;-2.35;91.41;94904.84;5027648;28;20197;-76
2021/01/06 04:04:15;;;;;;;71.50;18.10;;;;;;;-2.26;91.38;94889.06;5054148;28;20246;-75
2021/01/06 04:06:40;;;;;;;44.30;17.17;;;;;;;-2.35;91.46;94892.13;5052823;28;20542;-75
2021/01/06 04:09:06;;;;;;;26.03;15.03;;;;;;;-2.31;91.41;94891.84;5033696;28;20204;-76
2021/01/06 04:11:35;;;;;;;23.00;13.40;;;;;;;-2.27;90.95;94892.50;5029798;28;20181;-75
2021/01/06 04:14:00;;;;;;;21.50;13.93;;;;;;;-2.30;91.28;94890.13;5056119;28;20655;-75
2021/01/06 04:16:26;;;;;;;24.40;14.20;;;;;;;-2.31;91.12;94886.75;5073799;28;20199;-75
2021/01/06 04:18:51;;;;;;;22.27;13.10;;;;;;;-2.31;90.98;94891.03;5055763;28;20177;-75
2021/01/06 04:21:18;;;;;;;33.80;13.43;;;;;;;-2.33;90.86;94885.22;5063211;28;20238;-75
2021/01/06 04:23:43;;;;;;;23.87;12.47;;;;;;;-2.37;90.92;94884.59;5048640;28;20203;-77
2021/01/06 04:26:12;;;;;;;21.57;13.47;;;;;;;-2.31;90.97;94891.84;5073681;28;20174;-75
2021/01/06 04:28:37;;;;;;;34.17;13.70;;;;;;;-2.29;90.74;94896.88;5055567;28;20183;-76
2021/01/06 04:31:06;;;;;;;20.03;11.77;;;;;;;-2.32;91.13;94891.94;5080517;28;20690;-75
2021/01/06 04:33:38;;;;;;;20.97;12.37;;;;;;;-2.43;90.70;94886.66;5077223;28;20184;-75
2021/01/06 04:36:20;;;;;;;34.77;13.83;;;;;;;-2.40;90.90;94891.53;5035626;28;20195;-76
2021/01/06 04:38:49;;;;;;;18.60;12.47;;;;;;;-2.47;90.92;94893.63;5068714;28;20554;-76
2021/01/06 04:41:36;;;;;;;20.23;12.93;;;;;;;-2.43;90.98;94895.09;5032866;28;20217;-75
2021/01/06 04:44:20;;;;;;;17.80;11.00;;;;;;;-2.38;90.46;94889.75;5059440;28;20708;-75
2021/01/06 04:46:45;;;;;;;17.30;11.50;;;;;;;-2.38;91.32;94894.84;5053272;28;20205;-75
2021/01/06 04:49:21;;;;;;;35.27;12.03;;;;;;;-2.47;91.05;94895.31;5053081;28;20278;-76
2021/01/06 04:52:11;;;;;;;25.57;11.57;;;;;;;-2.40;91.04;94891.53;5033559;28;20180;-75
2021/01/06 04:55:20;;;;;;;111.30;16.90;;;;;;;-2.43;90.90;94886.66;5048445;28;20604;-75
2021/01/06 04:58:16;;;;;;;69.07;14.73;;;;;;;-2.41;90.85;94902.63;5046442;28;20203;-74
2021/01/06 05:00:50;;;;;;;398.67;32.20;;;;;;;-2.46;91.15;94889.38;5054754;28;20655;-74
2021/01/06 05:03:22;;;;;;;199.47;20.73;;;;;;;-2.49;90.54;94887.78;5025315;28;20192;-75
2021/01/06 05:05:55;;;;;;;83.03;16.23;;;;;;;-2.43;91.24;94886.66;5061213;28;20205;-75
2021/01/06 05:08:27;;;;;;;549.00;39.27;;;;;;;-2.56;90.93;94891.59;5068208;28;20223;-74
2021/01/06 05:11:25;;;;;;;359.63;28.87;;;;;;;-2.53;91.08;94890.59;5068036;28;20250;-75
2021/01/06 05:13:58;;;;;;;531.97;39.23;;;;;;;-2.66;91.29;94893.81;5022387;28;20191;-75
2021/01/06 05:16:50;;;;;;;170.20;21.43;;;;;;;-2.61;91.77;94886.75;5076323;28;20279;-75
2021/01/06 05:19:19;;;;;;;476.77;36.90;;;;;;;-2.57;91.57;94900.94;5031794;28;20199;-75
2021/01/06 05:21:45;;;;;;;469.40;34.63;;;;;;;-2.60;91.61;94900.28;5051201;28;20208;-75
2021/01/06 05:24:38;;;;;;;430.93;35.17;;;;;;;-2.59;91.59;94899.38;5065639;28;20205;-75
2021/01/06 05:27:06;;;;;;;419.83;32.90;;;;;;;-2.56;91.66;94899.22;5042739;28;20199;-75
2021/01/06 05:29:31;;;;;;;177.43;23.00;;;;;;;-2.52;91.28;94902.41;5052174;28;20175;-74
2021/01/06 05:31:57;;;;;;;252.27;22.70;;;;;;;-2.55;91.72;94911.03;5052318;28;20640;-75
2021/01/06 05:34:24;;;;;;;307.47;27.00;;;;;;;-2.50;91.88;94903.13;5048909;28;20188;-76
2021/01/06 05:36:50;;;;;;;537.60;39.73;;;;;;;-2.68;91.97;94910.06;5057500;28;20267;-74
2021/01/06 05:39:21;;;;;;;69.60;15.23;;;;;;;-2.53;91.75;94900.78;5036773;28;20189;-74
2021/01/06 05:41:49;;;;;;;191.30;19.87;;;;;;;-2.51;91.59;94904.03;5034248;28;20203;-75
2021/01/06 05:44:14;;;;;;;124.47;17.50;;;;;;;-2.57;91.22;94906.00;5067600;28;20177;-75
2021/01/06 05:46:44;;;;;;;47.53;13.47;;;;;;;-2.53;91.35;94916.03;5049642;28;20675;-76
2021/01/06 05:49:23;;;;;;;79.00;15.87;;;;;;;-2.62;91.35;94912.25;5050485;28;20191;-75
2021/01/06 05:51:55;;;;;;;83.07;15.80;;;;;;;-2.67;91.19;94915.03;5054157;28;20170;-75
2021/01/06 05:54:40;;;;;;;95.83;15.77;;;;;;;-2.69;91.70;94911.78;5087764;28;20188;-75
2021/01/06 05:57:36;;;;;;;22.93;13.17;;;;;;;-2.66;91.66;94905.69;5079682;28;20263;-75
2021/01/06 06:00:16;;;;;;;21.87;12.50;;;;;;;-2.61;91.61;94909.63;5029237;28;20190;-75
2021/01/06 06:02:48;;;;;;;40.63;13.10;;;;;;;-2.68;91.13;94907.50;5036134;28;20219;-74
2021/01/06 06:05:18;;;;;;;22.20;12.67;;;;;;;-2.64;91.12;94911.53;5078958;28;20178;-75
2021/01/06 06:08:07;;;;;;;41.23;13.77;;;;;;;-2.60;91.28;94903.66;5044594;28;20207;-75
2021/01/06 06:10:52;;;;;;;47.53;13.83;;;;;;;-2.61;91.14;94906.28;5045098;28;20186;-75
2021/01/06 06:13:29;;;;;;;25.40;13.17;;;;;;;-2.61;91.67;94906.28;5045787;28;20563;-75
2021/01/06 06:16:04;;;;;;;73.90;14.87;;;;;;;-2.56;91.34;94911.94;5087324;28;20626;-76
2021/01/06 06:19:01;;;;;;;98.13;19.93;;;;;;;-2.61;90.79;94914.72;5057165;28;20638;-75
2021/01/06 06:21:53;;;;;;;32.97;12.87;;;;;;;-2.56;91.28;94911.94;5016720;28;20238;-75
2021/01/06 06:24:37;;;;;;;103.87;17.80;;;;;;;-2.62;91.42;94917.34;5071613;28;20278;-74
2021/01/06 06:27:26;;;;;;;299.17;26.50;;;;;;;-2.67;91.12;94919.31;5053621;28;20203;-75
2021/01/06 06:30:09;;;;;;;32.07;13.70;;;;;;;-2.68;91.16;94920.22;5025069;28;20659;-76
2021/01/06 06:32:35;;;;;;;67.37;16.67;;;;;;;-2.73;91.74;94924.75;5053392;28;20183;-75
2021/01/06 06:35:06;;;;;;;55.93;15.63;;;;;;;-2.67;91.72;94922.66;5086620;28;20184;-75
2021/01/06 06:37:32;;;;;;;76.37;16.63;;;;;;;-2.66;91.30;94920.94;5071514;28;20193;-75
2021/01/06 06:39:57;;;;;;;160.93;21.07;;;;;;;-2.74;91.73;94923.06;5043648;28;20659;-75
2021/01/06 06:42:22;;;;;;;58.90;16.60;;;;;;;-2.64;91.70;94930.16;5062923;28;20290;-75
2021/01/06 06:45:17;;;;;;;62.17;20.50;;;;;;;-2.63;91.72;94936.88;5071363;28;20191;-75
2021/01/06 06:47:50;;;;;;;109.17;19.70;;;;;;;-2.62;91.22;94940.22;5066334;28;20207;-75
2021/01/06 06:50:21;;;;;;;61.67;15.97;;;;;;;-2.63;91.21;94936.06;5059015;28;20192;-75
2021/01/06 06:53:06;;;;;;;159.93;23.50;;;;;;;-2.59;91.31;94938.31;5064487;28;20198;-76
2021/01/06 06:55:57;;;;;;;30.87;14.40;;;;;;;-2.60;91.41;94931.59;5063546;28;20212;-75
2021/01/06 06:58:35;;;;;;;23.93;13.23;;;;;;;-2.53;91.13;94942.28;5029484;28;20182;-76
2021/01/06 07:01:07;;;;;;;28.63;14.33;;;;;;;-2.64;91.46;94935.22;5046640;28;20645;-75
2021/01/06 07:03:32;;;;;;;77.63;18.00;;;;;;;-2.70;91.18;94940.63;5044960;28;20798;-74
2021/01/06 07:06:00;;;;;;;28.03;14.30;;;;;;;-2.61;91.00;94940.13;5069675;28;20186;-75
2021/01/06 07:08:36;;;;;;;53.97;16.00;;;;;;;-2.58;91.40;94947.59;5053262;28;20278;-74
2021/01/06 07:11:03;;;;;;;26.77;15.13;;;;;;;-2.59;91.60;94948.50;5045087;28;20182;-75
2021/01/06 07:13:30;;;;;;;27.53;14.40;;;;;;;-2.70;91.42;94948.25;5059162;28;20180;-74
2021/01/06 07:16:06;;;;;;;23.97;13.13;;;;;;;-2.70;91.10;94940.63;5031409;28;20184;-75
2021/01/06 07:18:39;;;;;;;26.37;15.07;;;;;;;-2.75;91.36;94942.59;5041068;28;20613;-75
2021/01/06 07:21:07;;;;;;;25.07;14.63;;;;;;;-2.70;91.94;94939.81;5065304;28;20239;-75
2021/01/06 07:23:35;;;;;;;28.93;15.03;;;;;;;-2.65;91.63;94950.53;5074489;28;20184;-75
2021/01/06 07:26:28;;;;;;;25.37;14.50;;;;;;;-2.61;91.35;94950.31;5032845;28;20193;-74
2021/01/06 07:29:05;;;;;;;27.17;14.17;;;;;;;-2.71;91.02;94948.34;5030049;28;20275;-74
2021/01/06 07:31:41;;;;;;;25.00;13.80;;;;;;;-2.63;91.56;94953.84;5049178;28;20179;-74
2021/01/06 07:34:08;;;;;;;25.00;14.77;;;;;;;-2.55;91.35;94946.63;5057200;28;20186;-76
2021/01/06 07:36:46;;;;;;;24.57;13.40;;;;;;;-2.49;91.26;94955.63;5033199;28;20214;-75
2021/01/06 07:39:28;;;;;;;21.97;13.57;;;;;;;-2.48;90.66;94958.06;5066010;28;20182;-76
2021/01/06 07:41:54;;;;;;;23.37;13.73;;;;;;;-2.49;90.88;94955.63;5066164;28;20299;-77
2021/01/06 07:44:31;;;;;;;23.83;14.60;;;;;;;-2.48;91.22;94959.78;5072382;28;20199;-75
2021/01/06 07:47:13;;;;;;;29.13;14.73;;;;;;;-2.43;90.72;94963.75;5065403;28;20267;-76
2021/01/06 07:49:55;;;;;;;23.30;14.27;;;;;;;-2.42;90.77;94965.38;5050664;28;20189;-75
2021/01/06 07:52:30;;;;;;;25.93;14.93;;;;;;;-2.48;91.09;94975.88;5036316;28;20176;-76
2021/01/06 07:55:19;;;;;;;27.47;15.50;;;;;;;-2.45;91.25;94970.63;5052522;28;20187;-76
2021/01/06 07:57:49;;;;;;;24.87;14.27;;;;;;;-2.38;90.79;94976.22;5016080;28;20615;-76
2021/01/06 08:00:21;;;;;;;35.37;13.97;;;;;;;-2.31;90.95;94974.97;5032873;28;20185;-75
2021/01/06 08:02:56;;;;;;;27.27;14.87;;;;;;;-2.33;90.56;94984.41;5032786;28;20218;-74
2021/01/06 08:05:24;;;;;;;65.97;15.73;;;;;;;-2.36;90.50;94970.13;5064577;28;20838;-74
2021/01/06 08:08:05;;;;;;;33.83;14.90;;;;;;;-2.32;90.56;94976.69;5054312;28;20204;-74
2021/01/06 08:10:31;;;;;;;34.03;14.07;;;;;;;-2.31;90.62;94978.31;5053675;28;20181;-75
2021/01/06 08:13:14;;;;;;;24.70;14.77;;;;;;;-2.30;90.96;94981.69;5087311;28;20178;-75
2021/01/06 08:15:41;;;;;;;30.77;15.73;;;;;;;-2.24;90.77;94983.06;5051637;28;20181;-74
2021/01/06 08:18:21;;;;;;;27.60;16.07;;;;;;;-2.17;90.48;94985.19;5077465;28;20197;-73
2021/01/06 08:21:08;;;;;;;28.03;15.50;;;;;;;-2.11;90.69;94979.78;5035245;28;20176;-73
2021/01/06 08:23:59;;;;;;;24.70;14.23;;;;;;;-2.14;90.48;94985.03;5035831;28;20175;-75
2021/01/06 08:26:28;;;;;;;23.73;13.73;;;;;;;-2.18;89.95;94983.56;5067576;28;20201;-73
2021/01/06 08:29:11;;;;;;;24.80;13.97;;;;;;;-2.12;90.03;94987.47;5027051;28;20274;-75
2021/01/06 08:31:38;;;;;;;23.30;13.77;;;;;;;-2.09;90.10;94982.25;5053338;28;20175;-75
2021/01/06 08:34:04;;;;;;;24.70;14.10;;;;;;;-2.11;89.68;94989.97;5068997;28;20651;-74
2021/01/06 08:36:36;;;;;;;22.30;13.33;;;;;;;-2.14;89.76;94986.75;5066608;28;20234;-74
2021/01/06 08:39:19;;;;;;;24.17;13.80;;;;;;;-2.15;89.79;94991.03;5076608;28;20232;-75
2021/01/06 08:41:46;;;;;;;24.20;13.37;;;;;;;-2.09;90.17;94987.31;5035285;28;20236;-74
2021/01/06 08:44:31;;;;;;;25.53;13.63;;;;;;;-2.10;89.68;94991.59;5035587;28;20169;-75
2021/01/06 08:46:59;;;;;;;22.03;13.80;;;;;;;-2.08;90.03;94988.97;5051766;28;20254;-74
2021/01/06 08:49:29;;;;;;;23.63;13.13;;;;;;;-2.04;89.55;94993.78;5061732;28;20660;-75
2021/01/06 08:52:10;;;;;;;27.70;11.67;;;;;;;-2.07;89.48;94993.13;5064614;28;20173;-75
2021/01/06 08:54:35;;;;;;;28.53;13.17;;;;;;;-2.05;89.76;94999.78;5067200;28;20187;-73
2021/01/06 08:57:06;;;;;;;89.03;15.93;;;;;;;-2.09;89.37;95003.41;5034690;28;20197;-74
2021/01/06 08:59:37;;;;;;;21.20;12.63;;;;;;;-2.03;89.98;95008.16;5037071;28;20181;-73
2021/01/06 09:02:11;;;;;;;40.97;15.27;;;;;;;-2.06;89.61;95007.50;5053633;28;20238;-74
2021/01/06 09:04:42;;;;;;;63.23;14.73;;;;;;;-2.15;89.84;95016.44;5075122;28;20175;-74
2021/01/06 09:07:07;;;;;;;54.37;14.23;;;;;;;-2.02;89.59;95014.06;5067003;28;20241;-74
2021/01/06 09:09:32;;;;;;;58.73;14.80;;;;;;;-2.00;89.71;95008.00;5088243;28;20263;-74
2021/01/06 09:11:57;;;;;;;61.10;14.00;;;;;;;-1.95;89.28;95010.25;5074920;28;20178;-73
2021/01/06 09:14:36;;;;;;;67.23;13.73;;;;;;;-1.96;88.90;95010.34;5074899;28;20609;-74
2021/01/06 09:17:10;;;;;;;118.63;16.43;;;;;;;-1.92;88.75;95009.28;5060217;28;20214;-73
2021/01/06 09:19:45;;;;;;;38.13;13.80;;;;;;;-1.87;88.92;95007.28;5072431;28;20257;-73
2021/01/06 09:22:13;;;;;;;41.80;13.07;;;;;;;-1.98;89.08;95012.97;5037997;28;20263;-73
2021/01/06 09:24:40;;;;;;;18.17;12.20;;;;;;;-1.69;88.98;95013.88;5072442;28;20174;-73
2021/01/06 09:27:17;;;;;;;21.30;12.53;;;;;;;-1.60;88.81;95010.81;5053202;28;20195;-73
2021/01/06 09:29:43;;;;;;;20.93;12.23;;;;;;;-1.64;88.10;95019.56;5064050;28;20391;-73
2021/01/06 09:32:16;;;;;;;14.97;9.97;;;;;;;-1.65;87.40;95015.38;5073239;28;20169;-73
2021/01/06 09:34:50;;;;;;;13.43;9.53;;;;;;;-1.60;87.42;95018.47;5055396;28;20557;-73
2021/01/06 09:37:27;;;;;;;14.87;10.27;;;;;;;-1.64;87.24;95014.47;5054371;28;20206;-73
2021/01/06 09:39:55;;;;;;;14.70;10.10;;;;;;;-1.57;87.59;95015.75;5060283;28;20187;-73
2021/01/06 09:42:21;;;;;;;15.77;9.93;;;;;;;-1.45;87.14;95017.59;5073630;28;20572;-73
2021/01/06 09:44:48;;;;;;;15.17;10.50;;;;;;;-1.58;86.91;95009.03;5072151;28;20176;-73
2021/01/06 09:47:30;;;;;;;13.90;10.00;;;;;;;-1.41;87.13;95015.69;5054213;28;20614;-73
2021/01/06 09:49:58;;;;;;;15.17;11.03;;;;;;;-1.31;86.88;95023.63;5059266;28;20194;-73
2021/01/06 09:52:28;;;;;;;17.43;12.03;;;;;;;-1.26;87.29;95013.97;5065517;28;20224;-73
2021/01/06 09:54:54;;;;;;;17.40;12.50;;;;;;;-1.20;87.20;95018.72;5074223;28;20175;-73
2021/01/06 09:57:21;;;;;;;17.10;11.57;;;;;;;-1.18;86.84;95016.91;5073977;28;20216;-73
2021/01/06 09:59:57;;;;;;;14.97;11.23;;;;;;;-1.17;86.56;95021.91;5066043;28;20711;-72
2021/01/06 10:02:32;;;;;;;16.33;11.30;;;;;;;-1.23;86.91;95013.81;5062061;28;20207;-74
2021/01/06 10:05:11;;;;;;;16.43;11.70;;;;;;;-1.29;86.32;95012.44;5053836;28;20785;-74
2021/01/06 10:07:49;;;;;;;16.03;12.80;;;;;;;-1.21;87.00;95017.09;5053984;28;20196;-73
2021/01/06 10:10:22;;;;;;;18.63;11.73;;;;;;;-1.36;86.65;95011.16;5052236;28;20206;-74
2021/01/06 10:13:07;;;;;;;15.97;11.63;;;;;;;-1.36;86.55;95012.88;5048719;28;20263;-75
2021/01/06 10:15:40;;;;;;;16.17;10.53;;;;;;;-1.39;86.43;95013.06;5074049;28;20194;-74
2021/01/06 10:18:16;;;;;;;16.80;11.20;;;;;;;-1.35;86.75;95017.06;5073638;28;20194;-74
2021/01/06 10:20:52;;;;;;;18.20;11.97;;;;;;;-1.43;86.42;95015.75;5068636;28;21184;-75
2021/01/06 10:23:39;;;;;;;122.03;16.63;;;;;;;-1.46;86.48;95015.94;5060396;28;20663;-74
2021/01/06 10:26:42;;;;;;;46.83;12.80;;;;;;;-1.60;86.83;95021.00;5091800;28;20179;-74
2021/01/06 10:29:17;;;;;;;16.70;11.53;;;;;;;-1.48;87.04;95019.50;5073395;28;20697;-74
2021/01/06 10:32:20;;;;;;;20.90;12.10;;;;;;;-1.48;86.96;95017.78;5067315;28;20179;-74
2021/01/06 10:34:51;;;;;;;47.97;14.17;;;;;;;-1.48;86.90;95022.88;5043471;28;20232;-74
2021/01/06 10:37:28;;;;;;;25.43;12.27;;;;;;;-1.49;87.04;95018.69;5073615;28;20202;-73
2021/01/06 10:39:57;;;;;;;102.37;15.43;;;;;;;-1.64;87.08;95014.47;5073484;28;20167;-72
2021/01/06 10:42:22;;;;;;;25.10;14.93;;;;;;;-1.59;87.47;95014.19;5067339;28;20596;-74
2021/01/06 10:44:50;;;;;;;35.13;12.07;;;;;;;-1.52;87.02;95020.56;5083028;28;20176;-73
2021/01/06 10:47:26;;;;;;;86.97;14.57;;;;;;;-1.62;87.43;95006.72;5073470;28;20280;-74
2021/01/06 10:50:21;;;;;;;85.03;16.20;;;;;;;-1.67;87.38;95011.28;5091274;28;20643;-74
2021/01/06 10:53:08;;;;;;;31.73;13.07;;;;;;;-1.59;87.39;95007.38;5067073;28;20270;-74
2021/01/06 10:55:46;;;;;;;31.63;12.77;;;;;;;-1.59;87.12;95009.94;5080422;28;20181;-75
2021/01/06 10:58:23;;;;;;;140.13;15.80;;;;;;;-1.72;87.83;95008.97;5053396;28;20192;-75
2021/01/06 11:00:54;;;;;;;22.53;11.70;;;;;;;-1.69;88.10;94997.78;5036406;28;20183;-75
2021/01/06 11:03:42;;;;;;;36.50;11.87;;;;;;;-1.62;87.94;95001.63;5070624;28;20172;-75
2021/01/06 11:06:20;;;;;;;32.87;12.70;;;;;;;-1.61;88.08;94998.19;5057594;28;20172;-76
2021/01/06 11:09:16;;;;;;;23.60;11.30;;;;;;;-1.57;87.63;94997.94;5053038;28;20719;-75
2021/01/06 11:12:00;;;;;;;53.10;11.87;;;;;;;-1.67;87.67;94998.56;5070993;28;20166;-75
2021/01/06 11:14:53;;;;;;;43.10;12.83;;;;;;;-1.65;88.12;94999.28;5071859;28;20264;-75
2021/01/06 11:17:27;;;;;;;19.13;12.63;;;;;;;-1.55;87.82;94997.84;5064892;28;20199;-76
2021/01/06 11:20:34;;;;;;;48.07;15.97;;;;;;;-1.52;87.92;94995.94;5072955;28;20217;-76
2021/01/06 11:23:24;;;;;;;31.80;17.00;;;;;;;-1.43;87.40;94987.75;5074782;28;20219;-75
2021/01/06 11:25:53;;;;;;;95.67;15.77;;;;;;;-1.48;87.26;94991.50;5086488;28;20186;-76
2021/01/06 11:28:24;;;;;;;61.20;23.77;;;;;;;-1.43;87.47;94997.94;5068341;28;20752;-76
2021/01/06 11:31:14;;;;;;;40.80;15.70;;;;;;;-1.36;87.34;94995.88;5076614;28;20619;-75
2021/01/06 11:33:40;;;;;;;152.97;31.80;;;;;;;-1.27;87.39;94986.88;5060002;28;20270;-76
2021/01/06 11:36:05;;;;;;;136.67;23.40;;;;;;;-1.30;87.11;94992.16;5050250;28;20268;-76
2021/01/06 11:38:55;;;;;;;112.80;32.00;;;;;;;-1.32;87.24;94984.59;5085217;28;20188;-76
2021/01/06 11:41:26;;;;;;;90.17;20.90;;;;;;;-1.19;86.94;94992.34;5059866;28;20618;-76
2021/01/06 11:43:51;;;;;;;131.10;41.07;;;;;;;-1.28;86.89;94982.69;5079114;28;20188;-76